SAS4762 LDSP-ENZV
Flight info
| Callsign | SAS4762 |
|---|---|
| Flight time | 2h 32m |
| Altitude | 36000 |
| Route | SIRMI DCT KOREX DCT SIMBA DCT ABGUS DCT ATTUS DCT RIVEX |
| Aircraft | A320/M-SDE3FGHIRWY/LB1 |
Departure
| Time | 2026-05-09 10:29 |
|---|---|
| Airport | Split Saint Jerome Airport (LDSP) |
Arrival
| Time | 2026-05-09 13:01 |
|---|---|
| Airport | Stavanger Airport, Sola (ENZV) |
| Time | Latitude | Longitude | Altitude | Speed | Heading |
|---|---|---|---|---|---|
| 2026-05-09 09:54 | 43.53726 | 16.29872 | 68 ft | 0 kts | 115° |
| 2026-05-09 10:24 | 43.53726 | 16.29873 | 68 ft | 0 kts | 115° |
| 2026-05-09 10:24 | 43.53728 | 16.29880 | 68 ft | 1 kts | 64° |
| 2026-05-09 10:25 | 43.53735 | 16.29875 | 60 ft | 1 kts | 332° |
| 2026-05-09 10:25 | 43.53735 | 16.29850 | 64 ft | 5 kts | 274° |
| 2026-05-09 10:25 | 43.53770 | 16.29825 | 64 ft | 8 kts | 24° |
| 2026-05-09 10:25 | 43.53821 | 16.29903 | 63 ft | 14 kts | 50° |
| 2026-05-09 10:26 | 43.53892 | 16.30027 | 63 ft | 19 kts | 45° |
| 2026-05-09 10:26 | 43.54020 | 16.30103 | 70 ft | 21 kts | 22° |
| 2026-05-09 10:26 | 43.54141 | 16.30244 | 69 ft | 26 kts | 47° |
| 2026-05-09 10:26 | 43.54269 | 16.30467 | 58 ft | 33 kts | 53° |
| 2026-05-09 10:27 | 43.54412 | 16.30726 | 59 ft | 34 kts | 52° |
| 2026-05-09 10:27 | 43.54535 | 16.30946 | 61 ft | 14 kts | 55° |
| 2026-05-09 10:27 | 43.54576 | 16.31047 | 60 ft | 9 kts | 343° |
| 2026-05-09 10:27 | 43.54562 | 16.30996 | 56 ft | 0 kts | 231° |
| 2026-05-09 10:28 | 43.54551 | 16.30977 | 55 ft | 19 kts | 231° |
| 2026-05-09 10:28 | 43.54317 | 16.30558 | 56 ft | 88 kts | 232° |
| 2026-05-09 10:28 | 43.53838 | 16.29697 | 81 ft | 137 kts | 232° |
| 2026-05-09 10:28 | 43.53242 | 16.28642 | 588 ft | 134 kts | 230° |
| 2026-05-09 10:29 | 43.52645 | 16.27637 | 1065 ft | 136 kts | 231° |
| 2026-05-09 10:29 | 43.52012 | 16.26593 | 1352 ft | 152 kts | 230° |
| 2026-05-09 10:29 | 43.51288 | 16.25399 | 1511 ft | 177 kts | 231° |
| 2026-05-09 10:29 | 43.50424 | 16.23966 | 1662 ft | 208 kts | 230° |
| 2026-05-09 10:30 | 43.49446 | 16.22341 | 1959 ft | 233 kts | 231° |
| 2026-05-09 10:30 | 43.48368 | 16.20542 | 2433 ft | 252 kts | 231° |
| 2026-05-09 10:30 | 43.47232 | 16.18641 | 3144 ft | 261 kts | 232° |
| 2026-05-09 10:30 | 43.46105 | 16.16655 | 3916 ft | 266 kts | 241° |
| 2026-05-09 10:31 | 43.45637 | 16.14211 | 4665 ft | 269 kts | 276° |
| 2026-05-09 10:31 | 43.46262 | 16.11832 | 5476 ft | 268 kts | 308° |
| 2026-05-09 10:31 | 43.47586 | 16.10056 | 6296 ft | 268 kts | 329° |
| 2026-05-09 10:31 | 43.49316 | 16.09136 | 7064 ft | 269 kts | 353° |
| 2026-05-09 10:32 | 43.51183 | 16.09301 | 7852 ft | 272 kts | 13° |
| 2026-05-09 10:32 | 43.53034 | 16.09894 | 8647 ft | 274 kts | 13° |
| 2026-05-09 10:32 | 43.54897 | 16.10508 | 9419 ft | 277 kts | 13° |
| 2026-05-09 10:32 | 43.56783 | 16.11135 | 10167 ft | 280 kts | 13° |
| 2026-05-09 10:33 | 43.58739 | 16.11783 | 10444 ft | 301 kts | 13° |
| 2026-05-09 10:33 | 43.60854 | 16.12478 | 10604 ft | 323 kts | 13° |
| 2026-05-09 10:33 | 43.63085 | 16.13206 | 11048 ft | 334 kts | 12° |
| 2026-05-09 10:33 | 43.65360 | 16.13949 | 11667 ft | 338 kts | 12° |
| 2026-05-09 10:34 | 43.67663 | 16.14707 | 12292 ft | 342 kts | 12° |
| 2026-05-09 10:34 | 43.72350 | 16.16254 | 13553 ft | 350 kts | 12° |
| 2026-05-09 10:34 | 43.74729 | 16.17037 | 14154 ft | 354 kts | 12° |
| 2026-05-09 10:35 | 43.77137 | 16.17828 | 14712 ft | 357 kts | 11° |
| 2026-05-09 10:35 | 43.79569 | 16.18627 | 15257 ft | 361 kts | 11° |
| 2026-05-09 10:35 | 43.81992 | 16.19426 | 15795 ft | 364 kts | 11° |
| 2026-05-09 10:35 | 43.84470 | 16.20246 | 16328 ft | 368 kts | 11° |
| 2026-05-09 10:36 | 43.86969 | 16.21070 | 16883 ft | 371 kts | 11° |
| 2026-05-09 10:36 | 43.89493 | 16.21901 | 17423 ft | 374 kts | 11° |
| 2026-05-09 10:36 | 43.92040 | 16.22738 | 17977 ft | 378 kts | 11° |
| 2026-05-09 10:36 | 43.94645 | 16.23597 | 18520 ft | 382 kts | 11° |
| 2026-05-09 10:37 | 43.97205 | 16.24442 | 19021 ft | 385 kts | 11° |
| 2026-05-09 10:37 | 43.99824 | 16.25311 | 19544 ft | 388 kts | 10° |
| 2026-05-09 10:37 | 44.02464 | 16.26188 | 20068 ft | 391 kts | 10° |
| 2026-05-09 10:37 | 44.05125 | 16.27070 | 20578 ft | 395 kts | 10° |
| 2026-05-09 10:38 | 44.07812 | 16.27958 | 21094 ft | 398 kts | 10° |
| 2026-05-09 10:38 | 44.10527 | 16.28770 | 21578 ft | 399 kts | 5° |
| 2026-05-09 10:38 | 44.13289 | 16.28955 | 22037 ft | 398 kts | 353° |
| 2026-05-09 10:38 | 44.16025 | 16.28403 | 22505 ft | 397 kts | 343° |
| 2026-05-09 10:39 | 44.18623 | 16.27135 | 22981 ft | 396 kts | 332° |
| 2026-05-09 10:39 | 44.21017 | 16.25243 | 23444 ft | 397 kts | 326° |
| 2026-05-09 10:39 | 44.23377 | 16.23216 | 23867 ft | 400 kts | 326° |
| 2026-05-09 10:39 | 44.25757 | 16.21181 | 24245 ft | 403 kts | 326° |
| 2026-05-09 10:40 | 44.28154 | 16.19140 | 24635 ft | 405 kts | 326° |
| 2026-05-09 10:40 | 44.30564 | 16.17091 | 24980 ft | 407 kts | 326° |
| 2026-05-09 10:40 | 44.32989 | 16.15027 | 25329 ft | 409 kts | 326° |
| 2026-05-09 10:40 | 44.35423 | 16.12946 | 25677 ft | 412 kts | 325° |
| 2026-05-09 10:41 | 44.37872 | 16.10844 | 26006 ft | 414 kts | 325° |
| 2026-05-09 10:41 | 44.40335 | 16.08727 | 26323 ft | 417 kts | 325° |
| 2026-05-09 10:41 | 44.42812 | 16.06598 | 26635 ft | 419 kts | 325° |
| 2026-05-09 10:41 | 44.45302 | 16.04461 | 26967 ft | 421 kts | 325° |
| 2026-05-09 10:42 | 44.47805 | 16.02312 | 27262 ft | 424 kts | 325° |
| 2026-05-09 10:42 | 44.50323 | 16.00145 | 27566 ft | 426 kts | 325° |
| 2026-05-09 10:42 | 44.52853 | 15.97961 | 27885 ft | 428 kts | 324° |
| 2026-05-09 10:42 | 44.55396 | 15.95764 | 28229 ft | 430 kts | 324° |
| 2026-05-09 10:43 | 44.57946 | 15.93559 | 28544 ft | 432 kts | 324° |
| 2026-05-09 10:43 | 44.60517 | 15.91335 | 28860 ft | 435 kts | 324° |
| 2026-05-09 10:43 | 44.63091 | 15.89109 | 29239 ft | 435 kts | 324° |
| 2026-05-09 10:43 | 44.65667 | 15.86877 | 29673 ft | 434 kts | 324° |
| 2026-05-09 10:44 | 44.68234 | 15.84648 | 30104 ft | 434 kts | 324° |
| 2026-05-09 10:44 | 44.70802 | 15.82418 | 30491 ft | 434 kts | 324° |
| 2026-05-09 10:44 | 44.73365 | 15.80188 | 30917 ft | 432 kts | 324° |
| 2026-05-09 10:44 | 44.75916 | 15.77967 | 31335 ft | 430 kts | 324° |
| 2026-05-09 10:45 | 44.78468 | 15.75782 | 31736 ft | 429 kts | 326° |
| 2026-05-09 10:46 | 44.88072 | 15.68706 | 33477 ft | 421 kts | 329° |
| 2026-05-09 10:46 | 44.90682 | 15.66839 | 33880 ft | 420 kts | 328° |
| 2026-05-09 10:46 | 44.93272 | 15.64951 | 34219 ft | 419 kts | 328° |
| 2026-05-09 10:46 | 44.95853 | 15.63039 | 34543 ft | 418 kts | 327° |
| 2026-05-09 10:47 | 44.98416 | 15.61121 | 34823 ft | 417 kts | 327° |
| 2026-05-09 10:47 | 45.00979 | 15.59195 | 35097 ft | 417 kts | 327° |
| 2026-05-09 10:47 | 45.03538 | 15.57267 | 35394 ft | 416 kts | 327° |
| 2026-05-09 10:47 | 45.06092 | 15.55344 | 35687 ft | 416 kts | 327° |
| 2026-05-09 10:48 | 45.08647 | 15.53424 | 35965 ft | 415 kts | 327° |
| 2026-05-09 10:48 | 45.11202 | 15.51503 | 36105 ft | 417 kts | 327° |
| 2026-05-09 10:48 | 45.13781 | 15.49564 | 36087 ft | 423 kts | 327° |
| 2026-05-09 10:49 | 45.19023 | 15.45623 | 36098 ft | 428 kts | 327° |
| 2026-05-09 10:49 | 45.24288 | 15.41659 | 36093 ft | 429 kts | 327° |
| 2026-05-09 10:50 | 45.29554 | 15.37682 | 36088 ft | 429 kts | 327° |
| 2026-05-09 10:50 | 45.34818 | 15.33705 | 36095 ft | 429 kts | 327° |
| 2026-05-09 10:51 | 45.40087 | 15.29702 | 36094 ft | 430 kts | 327° |
| 2026-05-09 10:51 | 45.45374 | 15.25690 | 36097 ft | 431 kts | 327° |
| 2026-05-09 10:52 | 45.50667 | 15.21657 | 36101 ft | 431 kts | 327° |
| 2026-05-09 10:52 | 45.55959 | 15.17612 | 36131 ft | 432 kts | 327° |
| 2026-05-09 10:53 | 45.61260 | 15.13558 | 36116 ft | 432 kts | 327° |
| 2026-05-09 10:53 | 45.66563 | 15.09498 | 36106 ft | 433 kts | 327° |
| 2026-05-09 10:54 | 45.71876 | 15.05413 | 36121 ft | 433 kts | 327° |
| 2026-05-09 10:54 | 45.77149 | 15.01348 | 36116 ft | 434 kts | 327° |
| 2026-05-09 10:55 | 45.82465 | 14.97254 | 36118 ft | 434 kts | 327° |
| 2026-05-09 10:55 | 45.87775 | 14.93155 | 36116 ft | 433 kts | 327° |
| 2026-05-09 10:56 | 45.93107 | 14.89018 | 36116 ft | 433 kts | 327° |
| 2026-05-09 10:56 | 45.98368 | 14.84927 | 36113 ft | 432 kts | 327° |
| 2026-05-09 10:57 | 46.03659 | 14.80810 | 36123 ft | 432 kts | 327° |
| 2026-05-09 10:57 | 46.08939 | 14.76694 | 36129 ft | 431 kts | 327° |
| 2026-05-09 10:58 | 46.14209 | 14.72577 | 36130 ft | 431 kts | 327° |
| 2026-05-09 10:58 | 46.19471 | 14.68448 | 36129 ft | 430 kts | 327° |
| 2026-05-09 10:59 | 46.24732 | 14.64312 | 36153 ft | 430 kts | 327° |
| 2026-05-09 10:59 | 46.29991 | 14.60171 | 36139 ft | 431 kts | 327° |
| 2026-05-09 11:00 | 46.35252 | 14.56023 | 36123 ft | 430 kts | 327° |
| 2026-05-09 11:00 | 46.40508 | 14.51875 | 36122 ft | 430 kts | 327° |
| 2026-05-09 11:01 | 46.45761 | 14.47717 | 36106 ft | 430 kts | 327° |
| 2026-05-09 11:01 | 46.51015 | 14.43543 | 36114 ft | 431 kts | 327° |
| 2026-05-09 11:02 | 46.56269 | 14.39361 | 36104 ft | 431 kts | 327° |
| 2026-05-09 11:02 | 46.61522 | 14.35171 | 36100 ft | 431 kts | 327° |
| 2026-05-09 11:03 | 46.66774 | 14.30968 | 36109 ft | 431 kts | 327° |
| 2026-05-09 11:03 | 46.72029 | 14.26758 | 36116 ft | 431 kts | 327° |
| 2026-05-09 11:04 | 46.77283 | 14.22542 | 36110 ft | 431 kts | 327° |
| 2026-05-09 11:04 | 46.82546 | 14.18318 | 36109 ft | 432 kts | 327° |
| 2026-05-09 11:05 | 46.87797 | 14.14078 | 36111 ft | 432 kts | 327° |
| 2026-05-09 11:05 | 46.93053 | 14.09819 | 36142 ft | 432 kts | 326° |
| 2026-05-09 11:06 | 46.98301 | 14.05562 | 36139 ft | 432 kts | 327° |
| 2026-05-09 11:06 | 47.03555 | 14.01296 | 36140 ft | 431 kts | 327° |
| 2026-05-09 11:07 | 47.08802 | 13.97017 | 36131 ft | 431 kts | 327° |
| 2026-05-09 11:07 | 47.14010 | 13.92778 | 36134 ft | 431 kts | 327° |
| 2026-05-09 11:08 | 47.19253 | 13.88497 | 36146 ft | 431 kts | 326° |
| 2026-05-09 11:08 | 47.24491 | 13.84202 | 36149 ft | 430 kts | 326° |
| 2026-05-09 11:09 | 47.29720 | 13.79907 | 36138 ft | 430 kts | 326° |
| 2026-05-09 11:09 | 47.34947 | 13.75606 | 36143 ft | 430 kts | 326° |
| 2026-05-09 11:10 | 47.40159 | 13.71304 | 36171 ft | 429 kts | 326° |
| 2026-05-09 11:10 | 47.45369 | 13.66997 | 36149 ft | 428 kts | 326° |
| 2026-05-09 11:11 | 47.50571 | 13.62692 | 36146 ft | 428 kts | 326° |
| 2026-05-09 11:11 | 47.55765 | 13.58378 | 36143 ft | 428 kts | 326° |
| 2026-05-09 11:12 | 47.60968 | 13.54038 | 36162 ft | 429 kts | 326° |
| 2026-05-09 11:12 | 47.66163 | 13.49693 | 36173 ft | 429 kts | 326° |
| 2026-05-09 11:13 | 47.71367 | 13.45343 | 36167 ft | 429 kts | 326° |
| 2026-05-09 11:13 | 47.76570 | 13.40995 | 36167 ft | 429 kts | 326° |
| 2026-05-09 11:14 | 47.81769 | 13.36630 | 36162 ft | 429 kts | 326° |
| 2026-05-09 11:14 | 47.86930 | 13.32276 | 36159 ft | 429 kts | 326° |
| 2026-05-09 11:15 | 47.92127 | 13.27886 | 36165 ft | 429 kts | 326° |
| 2026-05-09 11:15 | 47.97350 | 13.23451 | 36155 ft | 430 kts | 326° |
| 2026-05-09 11:16 | 48.02520 | 13.19067 | 36150 ft | 430 kts | 326° |
| 2026-05-09 11:16 | 48.07715 | 13.14654 | 36149 ft | 431 kts | 326° |
| 2026-05-09 11:17 | 48.12529 | 13.10564 | 36144 ft | 431 kts | 326° |
| 2026-05-09 11:17 | 48.17739 | 13.06111 | 36150 ft | 431 kts | 326° |
| 2026-05-09 11:18 | 48.22998 | 13.01751 | 36154 ft | 435 kts | 332° |
| 2026-05-09 11:18 | 48.28588 | 12.98795 | 36158 ft | 438 kts | 337° |
| 2026-05-09 11:19 | 48.34344 | 12.95926 | 36165 ft | 438 kts | 338° |
| 2026-05-09 11:19 | 48.40126 | 12.93027 | 36172 ft | 438 kts | 338° |
| 2026-05-09 11:20 | 48.45913 | 12.90114 | 36160 ft | 438 kts | 338° |
| 2026-05-09 11:20 | 48.51689 | 12.87204 | 36156 ft | 438 kts | 338° |
| 2026-05-09 11:21 | 48.57472 | 12.84287 | 36151 ft | 438 kts | 338° |
| 2026-05-09 11:21 | 48.63252 | 12.81359 | 36165 ft | 438 kts | 338° |
| 2026-05-09 11:22 | 48.69041 | 12.78422 | 36156 ft | 439 kts | 338° |
| 2026-05-09 11:22 | 48.74833 | 12.75492 | 36152 ft | 439 kts | 338° |
| 2026-05-09 11:23 | 48.80584 | 12.72561 | 36150 ft | 439 kts | 338° |
| 2026-05-09 11:23 | 48.86374 | 12.69596 | 36164 ft | 439 kts | 339° |
| 2026-05-09 11:24 | 48.92163 | 12.66624 | 36157 ft | 439 kts | 339° |
| 2026-05-09 11:24 | 48.97955 | 12.63652 | 36150 ft | 439 kts | 339° |
| 2026-05-09 11:25 | 49.03747 | 12.60681 | 36145 ft | 439 kts | 338° |
| 2026-05-09 11:25 | 49.09534 | 12.57691 | 36156 ft | 439 kts | 339° |
| 2026-05-09 11:26 | 49.15323 | 12.54688 | 36152 ft | 440 kts | 339° |
| 2026-05-09 11:26 | 49.21119 | 12.51688 | 36143 ft | 440 kts | 339° |
| 2026-05-09 11:27 | 49.26915 | 12.48691 | 36147 ft | 439 kts | 339° |
| 2026-05-09 11:27 | 49.32694 | 12.45679 | 36164 ft | 439 kts | 339° |
| 2026-05-09 11:28 | 49.38470 | 12.42657 | 36153 ft | 438 kts | 339° |
| 2026-05-09 11:28 | 49.44244 | 12.39632 | 36152 ft | 438 kts | 339° |
| 2026-05-09 11:29 | 49.50006 | 12.36593 | 36155 ft | 438 kts | 339° |
| 2026-05-09 11:29 | 49.55782 | 12.33552 | 36153 ft | 438 kts | 339° |
| 2026-05-09 11:30 | 49.61553 | 12.30508 | 36146 ft | 439 kts | 339° |
| 2026-05-09 11:30 | 49.67326 | 12.27445 | 36145 ft | 439 kts | 339° |
| 2026-05-09 11:31 | 49.73100 | 12.24381 | 36144 ft | 438 kts | 340° |
| 2026-05-09 11:31 | 49.78862 | 12.21321 | 36159 ft | 438 kts | 340° |
| 2026-05-09 11:32 | 49.84617 | 12.18262 | 36151 ft | 437 kts | 340° |
| 2026-05-09 11:32 | 49.90366 | 12.15196 | 36159 ft | 436 kts | 340° |
| 2026-05-09 11:33 | 49.95133 | 12.12634 | 36156 ft | 436 kts | 340° |
| 2026-05-09 11:33 | 50.03742 | 12.08015 | 36174 ft | 436 kts | 340° |
| 2026-05-09 11:34 | 50.09469 | 12.04936 | 36179 ft | 436 kts | 340° |
| 2026-05-09 11:34 | 50.15194 | 12.01836 | 36179 ft | 435 kts | 340° |
| 2026-05-09 11:35 | 50.20906 | 11.98717 | 36178 ft | 435 kts | 340° |
| 2026-05-09 11:35 | 50.26608 | 11.95612 | 36198 ft | 433 kts | 341° |
| 2026-05-09 11:36 | 50.32301 | 11.92530 | 36196 ft | 432 kts | 341° |
| 2026-05-09 11:36 | 50.37982 | 11.89440 | 36191 ft | 432 kts | 341° |
| 2026-05-09 11:37 | 50.43650 | 11.86345 | 36183 ft | 431 kts | 341° |
| 2026-05-09 11:37 | 50.49312 | 11.83232 | 36184 ft | 431 kts | 341° |
| 2026-05-09 11:38 | 50.54967 | 11.80112 | 36176 ft | 430 kts | 341° |
| 2026-05-09 11:38 | 50.60620 | 11.76993 | 36178 ft | 430 kts | 341° |
| 2026-05-09 11:39 | 50.66263 | 11.73881 | 36174 ft | 430 kts | 341° |
| 2026-05-09 11:40 | 50.74727 | 11.69194 | 36178 ft | 429 kts | 341° |
| 2026-05-09 11:40 | 50.80355 | 11.66064 | 36187 ft | 428 kts | 341° |
| 2026-05-09 11:41 | 50.85932 | 11.62946 | 36189 ft | 428 kts | 341° |
| 2026-05-09 11:41 | 50.91579 | 11.59785 | 36190 ft | 427 kts | 341° |
| 2026-05-09 11:42 | 50.97182 | 11.56650 | 36198 ft | 427 kts | 341° |
| 2026-05-09 11:42 | 51.02785 | 11.53499 | 36202 ft | 427 kts | 341° |
| 2026-05-09 11:43 | 51.08383 | 11.50340 | 36210 ft | 427 kts | 341° |
| 2026-05-09 11:43 | 51.13976 | 11.47185 | 36208 ft | 427 kts | 341° |
| 2026-05-09 11:44 | 51.19569 | 11.44020 | 36187 ft | 426 kts | 341° |
| 2026-05-09 11:44 | 51.25122 | 11.40864 | 36190 ft | 427 kts | 341° |
| 2026-05-09 11:45 | 51.30716 | 11.37678 | 36218 ft | 427 kts | 341° |
| 2026-05-09 11:45 | 51.36303 | 11.34492 | 36213 ft | 426 kts | 341° |
| 2026-05-09 11:46 | 51.41887 | 11.31300 | 36209 ft | 426 kts | 341° |
| 2026-05-09 11:46 | 51.47471 | 11.28103 | 36210 ft | 426 kts | 341° |
| 2026-05-09 11:47 | 51.53045 | 11.24900 | 36214 ft | 425 kts | 340° |
| 2026-05-09 11:47 | 51.58618 | 11.21679 | 36217 ft | 425 kts | 340° |
| 2026-05-09 11:48 | 51.64183 | 11.18453 | 36214 ft | 425 kts | 340° |
| 2026-05-09 11:48 | 51.69744 | 11.15224 | 36198 ft | 425 kts | 340° |
| 2026-05-09 11:49 | 51.75311 | 11.11996 | 36200 ft | 426 kts | 340° |
| 2026-05-09 11:49 | 51.80881 | 11.08750 | 36211 ft | 426 kts | 340° |
| 2026-05-09 11:50 | 51.86459 | 11.05491 | 36213 ft | 426 kts | 340° |
| 2026-05-09 11:50 | 51.91914 | 11.01932 | 36214 ft | 426 kts | 337° |
| 2026-05-09 11:51 | 51.97371 | 10.98033 | 36216 ft | 426 kts | 336° |
| 2026-05-09 11:51 | 52.02796 | 10.94146 | 36228 ft | 426 kts | 336° |
| 2026-05-09 11:52 | 52.08238 | 10.90331 | 36228 ft | 426 kts | 337° |
| 2026-05-09 11:52 | 52.13645 | 10.86555 | 36206 ft | 426 kts | 336° |
| 2026-05-09 11:53 | 52.19087 | 10.82731 | 36201 ft | 426 kts | 336° |
| 2026-05-09 11:53 | 52.24530 | 10.78891 | 36201 ft | 426 kts | 336° |
| 2026-05-09 11:54 | 52.29971 | 10.75045 | 36215 ft | 426 kts | 336° |
| 2026-05-09 11:54 | 52.35416 | 10.71190 | 36212 ft | 426 kts | 336° |
| 2026-05-09 11:55 | 52.40855 | 10.67335 | 36209 ft | 426 kts | 336° |
| 2026-05-09 11:56 | 52.57158 | 10.55692 | 36225 ft | 426 kts | 336° |
| 2026-05-09 11:57 | 52.62593 | 10.51791 | 36216 ft | 426 kts | 336° |
| 2026-05-09 11:57 | 52.68028 | 10.47870 | 36217 ft | 427 kts | 336° |
| 2026-05-09 11:58 | 52.73466 | 10.43940 | 36224 ft | 427 kts | 336° |
| 2026-05-09 11:58 | 52.78908 | 10.40014 | 36224 ft | 427 kts | 336° |
| 2026-05-09 11:59 | 52.84350 | 10.36059 | 36230 ft | 427 kts | 336° |
| 2026-05-09 11:59 | 52.89786 | 10.32086 | 36229 ft | 427 kts | 336° |
| 2026-05-09 12:00 | 52.95167 | 10.28159 | 36205 ft | 427 kts | 336° |
| 2026-05-09 12:00 | 53.00454 | 10.24300 | 36207 ft | 427 kts | 336° |
| 2026-05-09 12:01 | 53.05785 | 10.20397 | 36214 ft | 427 kts | 335° |
| 2026-05-09 12:01 | 53.11167 | 10.16429 | 36202 ft | 427 kts | 335° |
| 2026-05-09 12:02 | 53.16603 | 10.12413 | 36204 ft | 428 kts | 335° |
| 2026-05-09 12:02 | 53.22042 | 10.08389 | 36210 ft | 428 kts | 335° |
| 2026-05-09 12:03 | 53.27488 | 10.04349 | 36214 ft | 428 kts | 335° |
| 2026-05-09 12:03 | 53.32901 | 10.00323 | 36223 ft | 428 kts | 335° |
| 2026-05-09 12:04 | 53.38337 | 9.96256 | 36220 ft | 428 kts | 335° |
| 2026-05-09 12:04 | 53.43740 | 9.92210 | 36220 ft | 428 kts | 335° |
| 2026-05-09 12:05 | 53.49051 | 9.88236 | 36228 ft | 428 kts | 335° |
| 2026-05-09 12:05 | 53.54298 | 9.84291 | 36230 ft | 428 kts | 335° |
| 2026-05-09 12:06 | 53.59735 | 9.80183 | 36245 ft | 428 kts | 335° |
| 2026-05-09 12:06 | 53.65167 | 9.76067 | 36241 ft | 428 kts | 335° |
| 2026-05-09 12:07 | 53.70585 | 9.71954 | 36217 ft | 428 kts | 335° |
| 2026-05-09 12:07 | 53.75990 | 9.67843 | 36218 ft | 428 kts | 335° |
| 2026-05-09 12:08 | 53.81409 | 9.63705 | 36214 ft | 428 kts | 335° |
| 2026-05-09 12:08 | 53.86831 | 9.59552 | 36235 ft | 428 kts | 335° |
| 2026-05-09 12:09 | 53.92258 | 9.55399 | 36234 ft | 428 kts | 335° |
| 2026-05-09 12:09 | 53.97664 | 9.51239 | 36229 ft | 428 kts | 334° |
| 2026-05-09 12:10 | 54.08456 | 9.42881 | 36222 ft | 428 kts | 334° |
| 2026-05-09 12:11 | 54.13860 | 9.38688 | 36236 ft | 428 kts | 334° |
| 2026-05-09 12:11 | 54.19286 | 9.34468 | 36234 ft | 428 kts | 334° |
| 2026-05-09 12:12 | 54.24711 | 9.30238 | 36230 ft | 428 kts | 334° |
| 2026-05-09 12:12 | 54.30127 | 9.25988 | 36235 ft | 428 kts | 334° |
| 2026-05-09 12:13 | 54.35545 | 9.21724 | 36236 ft | 429 kts | 334° |
| 2026-05-09 12:13 | 54.40941 | 9.17477 | 36248 ft | 429 kts | 333° |
| 2026-05-09 12:14 | 54.46360 | 9.13193 | 36242 ft | 429 kts | 333° |
| 2026-05-09 12:14 | 54.51780 | 9.08913 | 36241 ft | 429 kts | 333° |
| 2026-05-09 12:15 | 54.57200 | 9.04611 | 36235 ft | 429 kts | 333° |
| 2026-05-09 12:15 | 54.62623 | 9.00278 | 36237 ft | 430 kts | 333° |
| 2026-05-09 12:16 | 54.68045 | 8.95937 | 36252 ft | 430 kts | 333° |
| 2026-05-09 12:16 | 54.73470 | 8.91590 | 36249 ft | 429 kts | 333° |
| 2026-05-09 12:17 | 54.78888 | 8.87229 | 36240 ft | 429 kts | 333° |
| 2026-05-09 12:17 | 54.84297 | 8.82861 | 36237 ft | 429 kts | 333° |
| 2026-05-09 12:18 | 54.89715 | 8.78516 | 36235 ft | 430 kts | 335° |
| 2026-05-09 12:18 | 54.95385 | 8.75136 | 36244 ft | 431 kts | 339° |
| 2026-05-09 12:19 | 55.01070 | 8.71822 | 36231 ft | 431 kts | 338° |
| 2026-05-09 12:19 | 55.05805 | 8.69042 | 36224 ft | 432 kts | 338° |
| 2026-05-09 12:20 | 55.11499 | 8.65701 | 36223 ft | 432 kts | 338° |
| 2026-05-09 12:20 | 55.17206 | 8.62343 | 36224 ft | 433 kts | 338° |
| 2026-05-09 12:21 | 55.22911 | 8.58963 | 36232 ft | 433 kts | 338° |
| 2026-05-09 12:21 | 55.28618 | 8.55574 | 36233 ft | 433 kts | 338° |
| 2026-05-09 12:22 | 55.34327 | 8.52174 | 36233 ft | 433 kts | 338° |
| 2026-05-09 12:22 | 55.40040 | 8.48769 | 36232 ft | 433 kts | 338° |
| 2026-05-09 12:23 | 55.45746 | 8.45347 | 36232 ft | 433 kts | 338° |
| 2026-05-09 12:23 | 55.51456 | 8.41929 | 36249 ft | 433 kts | 338° |
| 2026-05-09 12:24 | 55.57169 | 8.38515 | 36247 ft | 434 kts | 337° |
| 2026-05-09 12:24 | 55.62883 | 8.35068 | 36240 ft | 434 kts | 337° |
| 2026-05-09 12:25 | 55.68604 | 8.31583 | 36234 ft | 435 kts | 337° |
| 2026-05-09 12:25 | 55.74330 | 8.28100 | 36235 ft | 435 kts | 337° |
| 2026-05-09 12:26 | 55.80026 | 8.24637 | 36232 ft | 436 kts | 337° |
| 2026-05-09 12:26 | 55.85796 | 8.21109 | 36234 ft | 436 kts | 337° |
| 2026-05-09 12:27 | 55.91532 | 8.17596 | 36236 ft | 436 kts | 337° |
| 2026-05-09 12:27 | 55.97220 | 8.14091 | 36237 ft | 436 kts | 337° |
| 2026-05-09 12:28 | 56.02986 | 8.10534 | 36241 ft | 436 kts | 337° |
| 2026-05-09 12:28 | 56.08683 | 8.07016 | 36257 ft | 436 kts | 337° |
| 2026-05-09 12:29 | 56.14416 | 8.03469 | 36252 ft | 436 kts | 337° |
| 2026-05-09 12:29 | 56.20146 | 7.99904 | 36255 ft | 436 kts | 336° |
| 2026-05-09 12:30 | 56.25882 | 7.96310 | 36243 ft | 437 kts | 336° |
| 2026-05-09 12:30 | 56.34501 | 7.90900 | 36264 ft | 438 kts | 336° |
| 2026-05-09 12:31 | 56.43142 | 7.85453 | 36257 ft | 439 kts | 336° |
| 2026-05-09 12:32 | 56.48899 | 7.81810 | 36256 ft | 439 kts | 336° |
| 2026-05-09 12:32 | 56.54657 | 7.78152 | 36253 ft | 438 kts | 336° |
| 2026-05-09 12:33 | 56.60411 | 7.74489 | 36274 ft | 438 kts | 335° |
| 2026-05-09 12:33 | 56.66165 | 7.70803 | 36265 ft | 438 kts | 335° |
| 2026-05-09 12:34 | 56.71918 | 7.67115 | 36261 ft | 438 kts | 335° |
| 2026-05-09 12:34 | 56.77674 | 7.63428 | 36259 ft | 438 kts | 335° |
| 2026-05-09 12:35 | 56.83428 | 7.59726 | 36266 ft | 439 kts | 335° |
| 2026-05-09 12:35 | 56.89193 | 7.55989 | 36273 ft | 440 kts | 335° |
| 2026-05-09 12:36 | 56.94972 | 7.52226 | 36268 ft | 441 kts | 335° |
| 2026-05-09 12:36 | 57.00751 | 7.48449 | 36264 ft | 441 kts | 335° |
| 2026-05-09 12:37 | 57.06536 | 7.44672 | 36267 ft | 441 kts | 335° |
| 2026-05-09 12:37 | 57.12325 | 7.40881 | 36268 ft | 441 kts | 335° |
| 2026-05-09 12:38 | 57.18107 | 7.37079 | 36285 ft | 441 kts | 334° |
| 2026-05-09 12:38 | 57.23892 | 7.33259 | 36269 ft | 442 kts | 334° |
| 2026-05-09 12:39 | 57.29640 | 7.29448 | 36268 ft | 442 kts | 334° |
| 2026-05-09 12:39 | 57.35406 | 7.25613 | 36272 ft | 440 kts | 334° |
| 2026-05-09 12:40 | 57.41152 | 7.21777 | 36270 ft | 438 kts | 334° |
| 2026-05-09 12:40 | 57.46886 | 7.17947 | 36264 ft | 438 kts | 333° |
| 2026-05-09 12:41 | 57.52611 | 7.14100 | 36249 ft | 437 kts | 333° |
| 2026-05-09 12:41 | 57.58334 | 7.10248 | 36221 ft | 438 kts | 333° |
| 2026-05-09 12:41 | 57.61218 | 7.08302 | 35306 ft | 446 kts | 333° |
| 2026-05-09 12:42 | 57.64172 | 7.06294 | 34217 ft | 455 kts | 332° |
| 2026-05-09 12:42 | 57.67160 | 7.04259 | 33173 ft | 459 kts | 332° |
| 2026-05-09 12:42 | 57.70150 | 7.02226 | 32355 ft | 457 kts | 332° |
| 2026-05-09 12:42 | 57.73123 | 7.00214 | 31225 ft | 453 kts | 332° |
| 2026-05-09 12:43 | 57.76075 | 6.98216 | 30070 ft | 449 kts | 332° |
| 2026-05-09 12:43 | 57.78995 | 6.96230 | 28829 ft | 444 kts | 332° |
| 2026-05-09 12:43 | 57.81871 | 6.94273 | 27680 ft | 437 kts | 332° |
| 2026-05-09 12:43 | 57.84715 | 6.92333 | 26585 ft | 431 kts | 333° |
| 2026-05-09 12:44 | 57.87519 | 6.90411 | 25542 ft | 426 kts | 333° |
| 2026-05-09 12:44 | 57.90281 | 6.88514 | 24532 ft | 421 kts | 333° |
| 2026-05-09 12:44 | 57.92982 | 6.86653 | 23525 ft | 416 kts | 333° |
| 2026-05-09 12:44 | 57.95704 | 6.84777 | 22820 ft | 403 kts | 333° |
| 2026-05-09 12:45 | 57.98278 | 6.83014 | 22410 ft | 385 kts | 333° |
| 2026-05-09 12:45 | 58.00717 | 6.81344 | 21956 ft | 370 kts | 333° |
| 2026-05-09 12:45 | 58.03089 | 6.79714 | 21531 ft | 356 kts | 333° |
| 2026-05-09 12:45 | 58.05424 | 6.78092 | 21070 ft | 353 kts | 333° |
| 2026-05-09 12:46 | 58.07730 | 6.76473 | 20630 ft | 353 kts | 333° |
| 2026-05-09 12:46 | 58.10026 | 6.74855 | 20189 ft | 352 kts | 333° |
| 2026-05-09 12:46 | 58.12329 | 6.73231 | 19720 ft | 353 kts | 334° |
| 2026-05-09 12:46 | 58.14629 | 6.71599 | 19211 ft | 353 kts | 332° |
| 2026-05-09 12:47 | 58.16689 | 6.69318 | 18298 ft | 347 kts | 315° |
| 2026-05-09 12:47 | 58.18539 | 6.66272 | 17345 ft | 357 kts | 314° |
| 2026-05-09 12:47 | 58.20399 | 6.63162 | 16825 ft | 355 kts | 314° |
| 2026-05-09 12:47 | 58.22238 | 6.60080 | 16360 ft | 351 kts | 314° |
| 2026-05-09 12:48 | 58.24061 | 6.57013 | 15883 ft | 348 kts | 314° |
| 2026-05-09 12:48 | 58.25863 | 6.53972 | 15417 ft | 346 kts | 315° |
| 2026-05-09 12:48 | 58.27658 | 6.50943 | 14950 ft | 344 kts | 315° |
| 2026-05-09 12:48 | 58.29439 | 6.47943 | 14486 ft | 341 kts | 315° |
| 2026-05-09 12:49 | 58.31211 | 6.44958 | 14026 ft | 339 kts | 315° |
| 2026-05-09 12:49 | 58.32972 | 6.41990 | 13534 ft | 337 kts | 315° |
| 2026-05-09 12:49 | 58.34714 | 6.39043 | 13072 ft | 333 kts | 315° |
| 2026-05-09 12:49 | 58.36438 | 6.36122 | 12619 ft | 330 kts | 315° |
| 2026-05-09 12:50 | 58.38147 | 6.33225 | 12169 ft | 328 kts | 315° |
| 2026-05-09 12:50 | 58.39843 | 6.30339 | 11720 ft | 326 kts | 315° |
| 2026-05-09 12:50 | 58.41528 | 6.27464 | 11285 ft | 324 kts | 315° |
| 2026-05-09 12:50 | 58.43201 | 6.24608 | 10850 ft | 322 kts | 315° |
| 2026-05-09 12:51 | 58.44864 | 6.21775 | 10523 ft | 317 kts | 315° |
| 2026-05-09 12:51 | 58.46479 | 6.19032 | 10398 ft | 305 kts | 314° |
| 2026-05-09 12:51 | 58.48037 | 6.16376 | 10269 ft | 295 kts | 314° |
| 2026-05-09 12:51 | 58.49551 | 6.13784 | 10007 ft | 290 kts | 314° |
| 2026-05-09 12:52 | 58.51056 | 6.11199 | 9607 ft | 290 kts | 314° |
| 2026-05-09 12:52 | 58.52554 | 6.08621 | 9174 ft | 291 kts | 314° |
| 2026-05-09 12:52 | 58.54044 | 6.06050 | 8911 ft | 286 kts | 314° |
| 2026-05-09 12:52 | 58.55504 | 6.03532 | 8741 ft | 276 kts | 314° |
| 2026-05-09 12:53 | 58.56886 | 6.01159 | 8591 ft | 258 kts | 313° |
| 2026-05-09 12:53 | 58.58176 | 5.98941 | 8422 ft | 242 kts | 313° |
| 2026-05-09 12:53 | 58.59412 | 5.96810 | 8045 ft | 236 kts | 313° |
| 2026-05-09 12:53 | 58.60625 | 5.94713 | 7577 ft | 234 kts | 313° |
| 2026-05-09 12:54 | 58.61830 | 5.92622 | 7090 ft | 233 kts | 313° |
| 2026-05-09 12:54 | 58.63026 | 5.90540 | 6630 ft | 231 kts | 313° |
| 2026-05-09 12:54 | 58.64216 | 5.88470 | 6126 ft | 230 kts | 313° |
| 2026-05-09 12:54 | 58.65399 | 5.86412 | 5715 ft | 226 kts | 313° |
| 2026-05-09 12:55 | 58.66524 | 5.84459 | 5579 ft | 211 kts | 313° |
| 2026-05-09 12:55 | 58.67568 | 5.82651 | 5448 ft | 195 kts | 313° |
| 2026-05-09 12:55 | 58.68566 | 5.80917 | 5059 ft | 193 kts | 313° |
| 2026-05-09 12:55 | 58.69537 | 5.79226 | 4713 ft | 180 kts | 312° |
| 2026-05-09 12:56 | 58.70408 | 5.77613 | 4412 ft | 169 kts | 303° |
| 2026-05-09 12:56 | 58.71037 | 5.75776 | 4110 ft | 163 kts | 290° |
| 2026-05-09 12:56 | 58.71445 | 5.73747 | 3669 ft | 163 kts | 284° |
| 2026-05-09 12:56 | 58.71815 | 5.71684 | 3267 ft | 161 kts | 284° |
| 2026-05-09 12:57 | 58.72181 | 5.69672 | 3052 ft | 159 kts | 286° |
| 2026-05-09 12:57 | 58.72548 | 5.67647 | 2944 ft | 162 kts | 287° |
| 2026-05-09 12:57 | 58.73118 | 5.65781 | 2791 ft | 164 kts | 308° |
| 2026-05-09 12:57 | 58.74049 | 5.64526 | 2626 ft | 167 kts | 334° |
| 2026-05-09 12:58 | 58.75200 | 5.64148 | 2445 ft | 169 kts | 356° |
| 2026-05-09 12:58 | 58.76364 | 5.64118 | 2244 ft | 165 kts | 356° |
| 2026-05-09 12:58 | 58.77471 | 5.64089 | 1998 ft | 154 kts | 356° |
| 2026-05-09 12:58 | 58.78508 | 5.64060 | 1792 ft | 144 kts | 356° |
| 2026-05-09 12:59 | 58.79500 | 5.64030 | 1589 ft | 140 kts | 358° |
| 2026-05-09 12:59 | 58.80473 | 5.64001 | 1397 ft | 137 kts | 357° |
| 2026-05-09 12:59 | 58.81425 | 5.63972 | 1209 ft | 136 kts | 358° |
| 2026-05-09 12:59 | 58.82371 | 5.63943 | 1015 ft | 134 kts | 357° |
| 2026-05-09 13:00 | 58.83302 | 5.63922 | 818 ft | 133 kts | 357° |
| 2026-05-09 13:00 | 58.84219 | 5.63900 | 686 ft | 130 kts | 356° |
| 2026-05-09 13:00 | 58.85124 | 5.63857 | 473 ft | 131 kts | 357° |
| 2026-05-09 13:00 | 58.86052 | 5.63828 | 273 ft | 132 kts | 355° |
| 2026-05-09 13:01 | 58.86977 | 5.63800 | 119 ft | 133 kts | 358° |
| 2026-05-09 13:01 | 58.87860 | 5.63791 | 38 ft | 114 kts | 354° |
| 2026-05-09 13:01 | 58.88463 | 5.63757 | 30 ft | 47 kts | 359° |
| 2026-05-09 13:01 | 58.88600 | 5.63755 | 29 ft | 13 kts | 359° |
| 2026-05-09 13:02 | 58.88686 | 5.63738 | 28 ft | 12 kts | 333° |
| 2026-05-09 13:02 | 58.88708 | 5.63605 | 28 ft | 10 kts | 269° |
| 2026-05-09 13:02 | 58.88707 | 5.63517 | 32 ft | 4 kts | 269° |
| 2026-05-09 13:02 | 58.88697 | 5.63443 | 31 ft | 10 kts | 238° |
| 2026-05-09 13:03 | 58.88613 | 5.63421 | 31 ft | 16 kts | 180° |
| 2026-05-09 13:03 | 58.88496 | 5.63425 | 31 ft | 16 kts | 178° |
| 2026-05-09 13:03 | 58.88386 | 5.63431 | 31 ft | 15 kts | 178° |
| 2026-05-09 13:03 | 58.88291 | 5.63398 | 31 ft | 13 kts | 225° |
| 2026-05-09 13:04 | 58.88228 | 5.63301 | 30 ft | 13 kts | 181° |
| 2026-05-09 13:04 | 58.88144 | 5.63284 | 30 ft | 12 kts | 199° |
| 2026-05-09 13:04 | 58.88075 | 5.63190 | 28 ft | 12 kts | 224° |
| 2026-05-09 13:04 | 58.88017 | 5.63068 | 28 ft | 12 kts | 232° |
| 2026-05-09 13:05 | 58.87988 | 5.62920 | 27 ft | 12 kts | 262° |
| 2026-05-09 13:05 | 58.87997 | 5.62760 | 26 ft | 12 kts | 286° |
| 2026-05-09 13:05 | 58.88024 | 5.62725 | 25 ft | 0 kts | 7° |
| 2026-05-09 13:05 | 58.88025 | 5.62724 | 25 ft | 0 kts | 0° |
| 2026-05-09 13:06 | 58.88033 | 5.62730 | 24 ft | 3 kts | 17° |
| 2026-05-09 13:06 | 58.88036 | 5.62732 | 25 ft | 0 kts | 18° |
| 2026-05-09 13:06 | 58.88038 | 5.62733 | 25 ft | 2 kts | 18° |
| 2026-05-09 13:06 | 58.88049 | 5.62740 | 25 ft | 3 kts | 18° |
| 2026-05-09 13:07 | 58.88063 | 5.62748 | 25 ft | 2 kts | 17° |
| 2026-05-09 13:07 | 58.88066 | 5.62750 | 25 ft | 0 kts | 17° |